sensor_id;sensor_type;location;lat;lon;timestamp;P1;durP1;ratioP1;P2;durP2;ratioP2
70549;SDS011;58101;48.658;2.328;2023-05-10T00:00:13;7.18;;;1.00;;
70549;SDS011;58101;48.658;2.328;2023-05-10T00:02:40;6.03;;;1.13;;
70549;SDS011;58101;48.658;2.328;2023-05-10T00:05:11;9.68;;;1.35;;
70549;SDS011;58101;48.658;2.328;2023-05-10T00:07:36;7.93;;;1.30;;
70549;SDS011;58101;48.658;2.328;2023-05-10T00:10:02;7.68;;;1.20;;
70549;SDS011;58101;48.658;2.328;2023-05-10T00:12:28;7.03;;;1.20;;
70549;SDS011;58101;48.658;2.328;2023-05-10T00:14:53;8.43;;;1.10;;
70549;SDS011;58101;48.658;2.328;2023-05-10T00:17:19;5.88;;;1.10;;
70549;SDS011;58101;48.658;2.328;2023-05-10T00:19:45;12.18;;;1.80;;
70549;SDS011;58101;48.658;2.328;2023-05-10T00:22:10;9.57;;;1.30;;
70549;SDS011;58101;48.658;2.328;2023-05-10T00:24:36;9.70;;;1.35;;
70549;SDS011;58101;48.658;2.328;2023-05-10T00:27:02;6.20;;;1.02;;
70549;SDS011;58101;48.658;2.328;2023-05-10T00:29:29;9.20;;;1.30;;
70549;SDS011;58101;48.658;2.328;2023-05-10T00:31:54;6.53;;;1.02;;
70549;SDS011;58101;48.658;2.328;2023-05-10T00:34:21;8.30;;;1.40;;
70549;SDS011;58101;48.658;2.328;2023-05-10T00:36:47;6.80;;;1.08;;
70549;SDS011;58101;48.658;2.328;2023-05-10T00:39:12;7.43;;;0.98;;
70549;SDS011;58101;48.658;2.328;2023-05-10T00:41:38;7.75;;;1.33;;
70549;SDS011;58101;48.658;2.328;2023-05-10T00:44:04;7.00;;;1.10;;
70549;SDS011;58101;48.658;2.328;2023-05-10T00:46:29;6.38;;;1.02;;
70549;SDS011;58101;48.658;2.328;2023-05-10T00:48:55;6.20;;;0.90;;
70549;SDS011;58101;48.658;2.328;2023-05-10T00:51:21;8.05;;;1.05;;
70549;SDS011;58101;48.658;2.328;2023-05-10T00:53:47;6.28;;;1.00;;
70549;SDS011;58101;48.658;2.328;2023-05-10T00:56:14;8.57;;;1.30;;
70549;SDS011;58101;48.658;2.328;2023-05-10T00:58:43;7.30;;;1.00;;
70549;SDS011;58101;48.658;2.328;2023-05-10T01:01:09;6.43;;;0.90;;
70549;SDS011;58101;48.658;2.328;2023-05-10T01:06:02;8.65;;;1.17;;
70549;SDS011;58101;48.658;2.328;2023-05-10T01:08:28;8.60;;;1.17;;
70549;SDS011;58101;48.658;2.328;2023-05-10T01:10:54;7.35;;;1.10;;
70549;SDS011;58101;48.658;2.328;2023-05-10T01:13:36;9.88;;;1.33;;
70549;SDS011;58101;48.658;2.328;2023-05-10T01:16:03;7.25;;;1.00;;
70549;SDS011;58101;48.658;2.328;2023-05-10T01:18:39;7.60;;;1.10;;
70549;SDS011;58101;48.658;2.328;2023-05-10T01:27:13;5.95;;;0.98;;
70549;SDS011;58101;48.658;2.328;2023-05-10T01:39:01;4.60;;;0.88;;
70549;SDS011;58101;48.658;2.328;2023-05-10T01:43:57;9.07;;;1.20;;
70549;SDS011;58101;48.658;2.328;2023-05-10T01:46:33;7.60;;;1.15;;
70549;SDS011;58101;48.658;2.328;2023-05-10T01:49:02;5.97;;;1.10;;
70549;SDS011;58101;48.658;2.328;2023-05-10T01:51:41;7.70;;;1.08;;
70549;SDS011;58101;48.658;2.328;2023-05-10T01:54:12;5.82;;;1.23;;
70549;SDS011;58101;48.658;2.328;2023-05-10T01:56:39;8.40;;;1.30;;
70549;SDS011;58101;48.658;2.328;2023-05-10T01:59:09;7.40;;;1.35;;
70549;SDS011;58101;48.658;2.328;2023-05-10T02:01:39;8.27;;;1.42;;
70549;SDS011;58101;48.658;2.328;2023-05-10T02:04:06;10.07;;;1.88;;
70549;SDS011;58101;48.658;2.328;2023-05-10T02:06:34;7.95;;;1.20;;
70549;SDS011;58101;48.658;2.328;2023-05-10T02:09:02;8.60;;;1.20;;
70549;SDS011;58101;48.658;2.328;2023-05-10T02:11:28;6.13;;;1.00;;
70549;SDS011;58101;48.658;2.328;2023-05-10T02:13:55;5.95;;;1.00;;
70549;SDS011;58101;48.658;2.328;2023-05-10T02:16:26;7.25;;;1.13;;
70549;SDS011;58101;48.658;2.328;2023-05-10T02:18:53;6.15;;;1.00;;
70549;SDS011;58101;48.658;2.328;2023-05-10T02:21:20;6.10;;;1.30;;
70549;SDS011;58101;48.658;2.328;2023-05-10T02:23:48;7.45;;;1.30;;
70549;SDS011;58101;48.658;2.328;2023-05-10T02:26:15;9.55;;;1.20;;
70549;SDS011;58101;48.658;2.328;2023-05-10T02:28:43;6.38;;;1.10;;
70549;SDS011;58101;48.658;2.328;2023-05-10T02:31:10;6.93;;;1.00;;
70549;SDS011;58101;48.658;2.328;2023-05-10T02:33:37;6.40;;;1.10;;
70549;SDS011;58101;48.658;2.328;2023-05-10T02:36:05;5.90;;;1.25;;
70549;SDS011;58101;48.658;2.328;2023-05-10T02:38:34;7.70;;;1.30;;
70549;SDS011;58101;48.658;2.328;2023-05-10T02:41:01;6.30;;;1.00;;
70549;SDS011;58101;48.658;2.328;2023-05-10T02:43:28;6.25;;;1.00;;
70549;SDS011;58101;48.658;2.328;2023-05-10T02:45:56;6.47;;;1.10;;
70549;SDS011;58101;48.658;2.328;2023-05-10T02:48:22;9.63;;;1.52;;
70549;SDS011;58101;48.658;2.328;2023-05-10T02:50:48;4.32;;;0.90;;
70549;SDS011;58101;48.658;2.328;2023-05-10T02:53:23;7.35;;;1.17;;
70549;SDS011;58101;48.658;2.328;2023-05-10T02:55:57;10.15;;;1.08;;
70549;SDS011;58101;48.658;2.328;2023-05-10T02:58:25;6.60;;;1.30;;
70549;SDS011;58101;48.658;2.328;2023-05-10T03:00:51;5.55;;;1.10;;
70549;SDS011;58101;48.658;2.328;2023-05-10T03:03:17;8.20;;;1.00;;
70549;SDS011;58101;48.658;2.328;2023-05-10T03:08:34;6.57;;;1.10;;
70549;SDS011;58101;48.658;2.328;2023-05-10T03:19:39;5.78;;;1.23;;
70549;SDS011;58101;48.658;2.328;2023-05-10T03:22:24;8.15;;;1.48;;
70549;SDS011;58101;48.658;2.328;2023-05-10T03:24:56;8.52;;;1.38;;
70549;SDS011;58101;48.658;2.328;2023-05-10T03:27:23;6.03;;;1.00;;
70549;SDS011;58101;48.658;2.328;2023-05-10T03:29:55;6.78;;;1.02;;
70549;SDS011;58101;48.658;2.328;2023-05-10T03:32:21;6.20;;;1.10;;
70549;SDS011;58101;48.658;2.328;2023-05-10T03:34:48;6.00;;;1.23;;
70549;SDS011;58101;48.658;2.328;2023-05-10T03:37:16;7.90;;;1.35;;
70549;SDS011;58101;48.658;2.328;2023-05-10T03:39:42;7.95;;;1.23;;
70549;SDS011;58101;48.658;2.328;2023-05-10T03:42:08;7.32;;;1.10;;
70549;SDS011;58101;48.658;2.328;2023-05-10T03:44:36;5.85;;;1.20;;
70549;SDS011;58101;48.658;2.328;2023-05-10T03:47:03;7.05;;;1.13;;
70549;SDS011;58101;48.658;2.328;2023-05-10T03:49:29;9.45;;;1.40;;
70549;SDS011;58101;48.658;2.328;2023-05-10T03:51:54;5.13;;;1.00;;
70549;SDS011;58101;48.658;2.328;2023-05-10T03:54:20;6.53;;;1.10;;
70549;SDS011;58101;48.658;2.328;2023-05-10T03:56:46;7.07;;;1.20;;
70549;SDS011;58101;48.658;2.328;2023-05-10T03:59:13;6.03;;;1.30;;
70549;SDS011;58101;48.658;2.328;2023-05-10T04:01:39;7.30;;;1.40;;
70549;SDS011;58101;48.658;2.328;2023-05-10T04:04:04;8.75;;;1.27;;
70549;SDS011;58101;48.658;2.328;2023-05-10T04:06:30;8.05;;;1.30;;
70549;SDS011;58101;48.658;2.328;2023-05-10T04:08:57;8.18;;;1.25;;
70549;SDS011;58101;48.658;2.328;2023-05-10T04:11:24;6.80;;;1.30;;
70549;SDS011;58101;48.658;2.328;2023-05-10T04:13:50;7.38;;;1.30;;
70549;SDS011;58101;48.658;2.328;2023-05-10T04:16:16;7.88;;;1.52;;
70549;SDS011;58101;48.658;2.328;2023-05-10T04:18:42;8.95;;;1.38;;
70549;SDS011;58101;48.658;2.328;2023-05-10T04:21:11;7.22;;;1.33;;
70549;SDS011;58101;48.658;2.328;2023-05-10T04:23:41;8.15;;;1.27;;
70549;SDS011;58101;48.658;2.328;2023-05-10T04:26:07;8.63;;;1.50;;
70549;SDS011;58101;48.658;2.328;2023-05-10T04:28:32;10.45;;;1.45;;
70549;SDS011;58101;48.658;2.328;2023-05-10T04:31:08;5.88;;;1.50;;
70549;SDS011;58101;48.658;2.328;2023-05-10T04:33:34;6.90;;;1.40;;
70549;SDS011;58101;48.658;2.328;2023-05-10T04:36:02;6.90;;;1.45;;
70549;SDS011;58101;48.658;2.328;2023-05-10T04:38:28;9.23;;;1.40;;
70549;SDS011;58101;48.658;2.328;2023-05-10T04:41:08;6.18;;;1.40;;
70549;SDS011;58101;48.658;2.328;2023-05-10T04:43:34;7.53;;;1.35;;
70549;SDS011;58101;48.658;2.328;2023-05-10T04:46:00;7.82;;;1.45;;
70549;SDS011;58101;48.658;2.328;2023-05-10T04:48:26;5.45;;;1.30;;
70549;SDS011;58101;48.658;2.328;2023-05-10T04:50:51;5.90;;;1.30;;
70549;SDS011;58101;48.658;2.328;2023-05-10T04:53:17;7.57;;;1.30;;
70549;SDS011;58101;48.658;2.328;2023-05-10T04:55:43;6.72;;;1.27;;
70549;SDS011;58101;48.658;2.328;2023-05-10T04:58:08;6.93;;;1.50;;
70549;SDS011;58101;48.658;2.328;2023-05-10T05:00:34;7.18;;;1.30;;
70549;SDS011;58101;48.658;2.328;2023-05-10T05:03:00;6.60;;;1.30;;
70549;SDS011;58101;48.658;2.328;2023-05-10T05:05:25;5.88;;;1.42;;
70549;SDS011;58101;48.658;2.328;2023-05-10T05:07:51;6.80;;;1.50;;
70549;SDS011;58101;48.658;2.328;2023-05-10T05:10:17;6.45;;;1.58;;
70549;SDS011;58101;48.658;2.328;2023-05-10T05:12:43;5.72;;;1.50;;
70549;SDS011;58101;48.658;2.328;2023-05-10T05:17:57;7.07;;;1.40;;
70549;SDS011;58101;48.658;2.328;2023-05-10T05:20:23;6.00;;;1.48;;
70549;SDS011;58101;48.658;2.328;2023-05-10T05:22:49;7.50;;;1.70;;
70549;SDS011;58101;48.658;2.328;2023-05-10T05:25:14;5.22;;;1.30;;
70549;SDS011;58101;48.658;2.328;2023-05-10T05:27:41;7.03;;;1.50;;
70549;SDS011;58101;48.658;2.328;2023-05-10T05:30:07;5.57;;;1.60;;
70549;SDS011;58101;48.658;2.328;2023-05-10T05:32:33;8.75;;;1.50;;
70549;SDS011;58101;48.658;2.328;2023-05-10T05:34:59;5.57;;;1.30;;
70549;SDS011;58101;48.658;2.328;2023-05-10T05:37:25;5.75;;;1.40;;
70549;SDS011;58101;48.658;2.328;2023-05-10T05:39:51;6.53;;;1.67;;
70549;SDS011;58101;48.658;2.328;2023-05-10T05:42:17;10.40;;;2.05;;
70549;SDS011;58101;48.658;2.328;2023-05-10T05:44:43;5.10;;;1.40;;
70549;SDS011;58101;48.658;2.328;2023-05-10T05:47:09;4.93;;;1.40;;
70549;SDS011;58101;48.658;2.328;2023-05-10T05:49:35;7.18;;;1.48;;
70549;SDS011;58101;48.658;2.328;2023-05-10T05:52:02;6.07;;;1.52;;
70549;SDS011;58101;48.658;2.328;2023-05-10T05:54:28;7.07;;;1.50;;
70549;SDS011;58101;48.658;2.328;2023-05-10T05:57:00;7.18;;;1.50;;
70549;SDS011;58101;48.658;2.328;2023-05-10T05:59:29;5.88;;;1.40;;
70549;SDS011;58101;48.658;2.328;2023-05-10T06:01:55;5.50;;;1.30;;
70549;SDS011;58101;48.658;2.328;2023-05-10T06:04:20;7.22;;;1.45;;
70549;SDS011;58101;48.658;2.328;2023-05-10T06:06:46;7.15;;;1.70;;
70549;SDS011;58101;48.658;2.328;2023-05-10T06:09:12;8.32;;;1.35;;
70549;SDS011;58101;48.658;2.328;2023-05-10T06:11:38;5.45;;;1.40;;
70549;SDS011;58101;48.658;2.328;2023-05-10T06:14:04;6.15;;;1.45;;
70549;SDS011;58101;48.658;2.328;2023-05-10T06:16:31;6.97;;;1.35;;
70549;SDS011;58101;48.658;2.328;2023-05-10T06:18:57;6.43;;;1.60;;
70549;SDS011;58101;48.658;2.328;2023-05-10T06:21:23;4.90;;;1.73;;
70549;SDS011;58101;48.658;2.328;2023-05-10T06:23:49;7.93;;;1.40;;
70549;SDS011;58101;48.658;2.328;2023-05-10T06:26:14;7.78;;;1.38;;
70549;SDS011;58101;48.658;2.328;2023-05-10T06:28:43;4.95;;;1.20;;
70549;SDS011;58101;48.658;2.328;2023-05-10T06:31:09;5.13;;;1.20;;
70549;SDS011;58101;48.658;2.328;2023-05-10T06:33:36;5.95;;;1.30;;
70549;SDS011;58101;48.658;2.328;2023-05-10T06:36:02;5.72;;;1.30;;
70549;SDS011;58101;48.658;2.328;2023-05-10T06:38:28;7.22;;;1.50;;
70549;SDS011;58101;48.658;2.328;2023-05-10T06:40:53;7.63;;;1.33;;
70549;SDS011;58101;48.658;2.328;2023-05-10T06:43:19;5.38;;;1.30;;
70549;SDS011;58101;48.658;2.328;2023-05-10T06:45:57;5.78;;;1.48;;
70549;SDS011;58101;48.658;2.328;2023-05-10T06:48:22;6.47;;;1.20;;
70549;SDS011;58101;48.658;2.328;2023-05-10T06:50:48;4.95;;;1.23;;
70549;SDS011;58101;48.658;2.328;2023-05-10T06:53:14;5.90;;;1.38;;
70549;SDS011;58101;48.658;2.328;2023-05-10T06:55:40;6.70;;;1.30;;
70549;SDS011;58101;48.658;2.328;2023-05-10T06:58:06;6.38;;;1.20;;
70549;SDS011;58101;48.658;2.328;2023-05-10T07:00:54;7.95;;;1.40;;
70549;SDS011;58101;48.658;2.328;2023-05-10T07:03:39;4.30;;;1.17;;
70549;SDS011;58101;48.658;2.328;2023-05-10T07:06:05;4.78;;;1.20;;
70549;SDS011;58101;48.658;2.328;2023-05-10T07:08:34;6.03;;;1.10;;
70549;SDS011;58101;48.658;2.328;2023-05-10T07:11:08;4.53;;;1.27;;
70549;SDS011;58101;48.658;2.328;2023-05-10T07:13:35;7.18;;;1.15;;
70549;SDS011;58101;48.658;2.328;2023-05-10T07:16:01;5.55;;;1.23;;
70549;SDS011;58101;48.658;2.328;2023-05-10T07:18:28;4.57;;;0.93;;
70549;SDS011;58101;48.658;2.328;2023-05-10T07:20:53;4.80;;;0.93;;
70549;SDS011;58101;48.658;2.328;2023-05-10T07:23:22;4.40;;;1.00;;
70549;SDS011;58101;48.658;2.328;2023-05-10T07:25:48;2.90;;;0.80;;
70549;SDS011;58101;48.658;2.328;2023-05-10T07:28:16;2.75;;;0.80;;
70549;SDS011;58101;48.658;2.328;2023-05-10T07:30:42;3.45;;;0.90;;
70549;SDS011;58101;48.658;2.328;2023-05-10T07:33:08;3.30;;;0.82;;
70549;SDS011;58101;48.658;2.328;2023-05-10T07:35:35;3.60;;;0.80;;
70549;SDS011;58101;48.658;2.328;2023-05-10T07:38:01;3.17;;;0.85;;
70549;SDS011;58101;48.658;2.328;2023-05-10T07:40:27;3.40;;;0.90;;
70549;SDS011;58101;48.658;2.328;2023-05-10T07:42:53;3.08;;;0.80;;
70549;SDS011;58101;48.658;2.328;2023-05-10T07:45:19;3.20;;;0.75;;
70549;SDS011;58101;48.658;2.328;2023-05-10T07:47:45;3.22;;;0.70;;
70549;SDS011;58101;48.658;2.328;2023-05-10T07:50:12;3.72;;;0.80;;
70549;SDS011;58101;48.658;2.328;2023-05-10T07:52:39;3.78;;;0.80;;
70549;SDS011;58101;48.658;2.328;2023-05-10T07:55:04;3.72;;;0.80;;
70549;SDS011;58101;48.658;2.328;2023-05-10T07:57:32;3.78;;;0.85;;
70549;SDS011;58101;48.658;2.328;2023-05-10T07:59:58;4.57;;;0.80;;
70549;SDS011;58101;48.658;2.328;2023-05-10T08:02:24;4.88;;;0.98;;
70549;SDS011;58101;48.658;2.328;2023-05-10T08:04:50;5.00;;;0.90;;
70549;SDS011;58101;48.658;2.328;2023-05-10T08:07:16;3.00;;;0.80;;
70549;SDS011;58101;48.658;2.328;2023-05-10T08:09:42;4.00;;;0.90;;
70549;SDS011;58101;48.658;2.328;2023-05-10T08:12:08;4.95;;;1.20;;
70549;SDS011;58101;48.658;2.328;2023-05-10T08:14:40;3.97;;;0.80;;
70549;SDS011;58101;48.658;2.328;2023-05-10T08:17:05;3.35;;;0.80;;
70549;SDS011;58101;48.658;2.328;2023-05-10T08:19:31;3.00;;;0.63;;
70549;SDS011;58101;48.658;2.328;2023-05-10T08:21:57;3.20;;;0.60;;
70549;SDS011;58101;48.658;2.328;2023-05-10T08:24:22;3.83;;;0.80;;
70549;SDS011;58101;48.658;2.328;2023-05-10T08:26:48;2.67;;;0.80;;
70549;SDS011;58101;48.658;2.328;2023-05-10T08:29:14;3.00;;;0.70;;
70549;SDS011;58101;48.658;2.328;2023-05-10T08:31:40;3.65;;;0.90;;
70549;SDS011;58101;48.658;2.328;2023-05-10T08:37:30;3.58;;;0.75;;
70549;SDS011;58101;48.658;2.328;2023-05-10T08:39:57;3.63;;;0.82;;
70549;SDS011;58101;48.658;2.328;2023-05-10T08:42:22;3.95;;;1.10;;
70549;SDS011;58101;48.658;2.328;2023-05-10T08:44:53;5.00;;;1.10;;
70549;SDS011;58101;48.658;2.328;2023-05-10T08:47:24;5.35;;;1.00;;
70549;SDS011;58101;48.658;2.328;2023-05-10T08:50:02;5.55;;;1.10;;
70549;SDS011;58101;48.658;2.328;2023-05-10T08:55:20;6.55;;;1.65;;
70549;SDS011;58101;48.658;2.328;2023-05-10T08:57:48;6.00;;;1.30;;
70549;SDS011;58101;48.658;2.328;2023-05-10T09:00:15;6.60;;;1.48;;
70549;SDS011;58101;48.658;2.328;2023-05-10T09:02:41;9.88;;;1.83;;
70549;SDS011;58101;48.658;2.328;2023-05-10T09:05:09;9.52;;;1.80;;
70549;SDS011;58101;48.658;2.328;2023-05-10T09:07:35;10.82;;;1.80;;
70549;SDS011;58101;48.658;2.328;2023-05-10T09:10:01;11.77;;;1.90;;
70549;SDS011;58101;48.658;2.328;2023-05-10T09:12:28;10.05;;;1.83;;
70549;SDS011;58101;48.658;2.328;2023-05-10T09:14:57;11.57;;;1.98;;
70549;SDS011;58101;48.658;2.328;2023-05-10T09:17:24;9.68;;;1.98;;
70549;SDS011;58101;48.658;2.328;2023-05-10T09:20:02;14.00;;;2.80;;
70549;SDS011;58101;48.658;2.328;2023-05-10T09:22:32;11.90;;;2.05;;
70549;SDS011;58101;48.658;2.328;2023-05-10T09:25:11;15.13;;;2.42;;
70549;SDS011;58101;48.658;2.328;2023-05-10T09:27:40;12.55;;;2.55;;
70549;SDS011;58101;48.658;2.328;2023-05-10T11:02:43;16.25;;;2.70;;
70549;SDS011;58101;48.658;2.328;2023-05-10T11:07:58;11.63;;;2.10;;
70549;SDS011;58101;48.658;2.328;2023-05-10T11:10:25;12.70;;;2.05;;
70549;SDS011;58101;48.658;2.328;2023-05-10T11:13:08;9.55;;;2.17;;
70549;SDS011;58101;48.658;2.328;2023-05-10T11:15:39;10.30;;;1.92;;
70549;SDS011;58101;48.658;2.328;2023-05-10T11:18:22;12.02;;;2.05;;
70549;SDS011;58101;48.658;2.328;2023-05-10T11:20:56;12.45;;;1.90;;
70549;SDS011;58101;48.658;2.328;2023-05-10T11:23:31;10.88;;;2.10;;
70549;SDS011;58101;48.658;2.328;2023-05-10T11:26:01;11.50;;;2.22;;
70549;SDS011;58101;48.658;2.328;2023-05-10T11:28:27;12.38;;;2.20;;
70549;SDS011;58101;48.658;2.328;2023-05-10T11:30:53;12.57;;;2.20;;
70549;SDS011;58101;48.658;2.328;2023-05-10T11:35:45;8.48;;;1.80;;
70549;SDS011;58101;48.658;2.328;2023-05-10T11:38:12;11.88;;;1.88;;
70549;SDS011;58101;48.658;2.328;2023-05-10T11:43:04;10.27;;;1.80;;
70549;SDS011;58101;48.658;2.328;2023-05-10T11:45:42;9.63;;;1.75;;
70549;SDS011;58101;48.658;2.328;2023-05-10T11:48:10;9.38;;;2.10;;
70549;SDS011;58101;48.658;2.328;2023-05-10T11:50:35;10.52;;;2.13;;
70549;SDS011;58101;48.658;2.328;2023-05-10T11:53:01;9.02;;;1.77;;
70549;SDS011;58101;48.658;2.328;2023-05-10T11:55:27;11.40;;;2.00;;
70549;SDS011;58101;48.658;2.328;2023-05-10T11:57:55;10.02;;;1.58;;
70549;SDS011;58101;48.658;2.328;2023-05-10T12:00:30;8.85;;;1.70;;
70549;SDS011;58101;48.658;2.328;2023-05-10T12:02:57;7.50;;;1.75;;
70549;SDS011;58101;48.658;2.328;2023-05-10T12:05:23;11.43;;;1.92;;
70549;SDS011;58101;48.658;2.328;2023-05-10T12:07:49;12.10;;;1.85;;
70549;SDS011;58101;48.658;2.328;2023-05-10T12:10:15;8.00;;;1.70;;
70549;SDS011;58101;48.658;2.328;2023-05-10T12:12:45;11.82;;;1.85;;
70549;SDS011;58101;48.658;2.328;2023-05-10T12:15:23;10.57;;;1.70;;
70549;SDS011;58101;48.658;2.328;2023-05-10T12:20:52;10.43;;;2.08;;
70549;SDS011;58101;48.658;2.328;2023-05-10T12:23:18;8.35;;;1.70;;
70549;SDS011;58101;48.658;2.328;2023-05-10T12:28:46;8.18;;;1.42;;
70549;SDS011;58101;48.658;2.328;2023-05-10T12:31:12;7.93;;;1.70;;
70549;SDS011;58101;48.658;2.328;2023-05-10T12:33:38;8.43;;;1.73;;
70549;SDS011;58101;48.658;2.328;2023-05-10T12:36:12;11.57;;;1.90;;
70549;SDS011;58101;48.658;2.328;2023-05-10T12:38:40;8.07;;;1.65;;
70549;SDS011;58101;48.658;2.328;2023-05-10T12:41:09;8.90;;;1.70;;
70549;SDS011;58101;48.658;2.328;2023-05-10T19:02:44;7.20;;;1.88;;
70549;SDS011;58101;48.658;2.328;2023-05-10T19:05:12;6.93;;;1.45;;
70549;SDS011;58101;48.658;2.328;2023-05-10T19:07:39;7.72;;;1.63;;
70549;SDS011;58101;48.658;2.328;2023-05-10T19:10:07;7.70;;;1.90;;
70549;SDS011;58101;48.658;2.328;2023-05-10T19:12:37;9.63;;;1.77;;
70549;SDS011;58101;48.658;2.328;2023-05-10T19:15:05;8.02;;;1.70;;
70549;SDS011;58101;48.658;2.328;2023-05-10T19:17:31;8.90;;;1.70;;
70549;SDS011;58101;48.658;2.328;2023-05-10T19:22:45;11.63;;;1.85;;
70549;SDS011;58101;48.658;2.328;2023-05-10T19:25:14;6.65;;;1.55;;
70549;SDS011;58101;48.658;2.328;2023-05-10T19:27:40;9.48;;;1.92;;
70549;SDS011;58101;48.658;2.328;2023-05-10T19:30:09;9.98;;;1.70;;
70549;SDS011;58101;48.658;2.328;2023-05-10T19:32:34;8.40;;;1.83;;
70549;SDS011;58101;48.658;2.328;2023-05-10T19:35:00;8.00;;;2.00;;
70549;SDS011;58101;48.658;2.328;2023-05-10T19:37:26;8.82;;;1.70;;
70549;SDS011;58101;48.658;2.328;2023-05-10T19:39:52;8.32;;;1.88;;
70549;SDS011;58101;48.658;2.328;2023-05-10T19:42:18;8.80;;;2.35;;
70549;SDS011;58101;48.658;2.328;2023-05-10T19:44:44;7.75;;;1.75;;
70549;SDS011;58101;48.658;2.328;2023-05-10T19:47:10;7.93;;;1.70;;
70549;SDS011;58101;48.658;2.328;2023-05-10T19:49:36;11.15;;;1.88;;
70549;SDS011;58101;48.658;2.328;2023-05-10T19:52:03;8.45;;;1.80;;
70549;SDS011;58101;48.658;2.328;2023-05-10T19:54:29;7.93;;;1.70;;
70549;SDS011;58101;48.658;2.328;2023-05-10T19:56:54;8.50;;;2.00;;
70549;SDS011;58101;48.658;2.328;2023-05-10T19:59:20;8.30;;;1.92;;
70549;SDS011;58101;48.658;2.328;2023-05-10T20:01:46;7.88;;;1.80;;
70549;SDS011;58101;48.658;2.328;2023-05-10T20:04:11;11.88;;;2.30;;
70549;SDS011;58101;48.658;2.328;2023-05-10T20:06:37;8.95;;;1.83;;
70549;SDS011;58101;48.658;2.328;2023-05-10T20:09:03;7.35;;;1.95;;
70549;SDS011;58101;48.658;2.328;2023-05-10T20:11:28;7.82;;;1.70;;
70549;SDS011;58101;48.658;2.328;2023-05-10T20:13:55;9.65;;;1.80;;
70549;SDS011;58101;48.658;2.328;2023-05-10T20:16:20;8.18;;;1.90;;
70549;SDS011;58101;48.658;2.328;2023-05-10T20:18:46;10.55;;;1.90;;
70549;SDS011;58101;48.658;2.328;2023-05-10T20:21:12;10.75;;;2.08;;
70549;SDS011;58101;48.658;2.328;2023-05-10T20:23:38;8.93;;;1.90;;
70549;SDS011;58101;48.658;2.328;2023-05-10T20:26:04;10.85;;;2.13;;
70549;SDS011;58101;48.658;2.328;2023-05-10T20:28:30;9.88;;;2.10;;
70549;SDS011;58101;48.658;2.328;2023-05-10T20:30:56;6.97;;;1.92;;
70549;SDS011;58101;48.658;2.328;2023-05-10T20:33:22;7.80;;;1.80;;
70549;SDS011;58101;48.658;2.328;2023-05-10T20:35:48;10.20;;;2.10;;
70549;SDS011;58101;48.658;2.328;2023-05-10T20:38:15;11.88;;;2.00;;
70549;SDS011;58101;48.658;2.328;2023-05-10T20:45:33;7.03;;;1.80;;
70549;SDS011;58101;48.658;2.328;2023-05-10T20:48:00;8.50;;;2.22;;
70549;SDS011;58101;48.658;2.328;2023-05-10T20:50:26;8.65;;;2.05;;
70549;SDS011;58101;48.658;2.328;2023-05-10T20:52:52;10.52;;;2.22;;
70549;SDS011;58101;48.658;2.328;2023-05-10T20:55:19;12.50;;;2.17;;
70549;SDS011;58101;48.658;2.328;2023-05-10T20:58:05;8.30;;;2.25;;
70549;SDS011;58101;48.658;2.328;2023-05-10T21:00:40;12.85;;;1.90;;
70549;SDS011;58101;48.658;2.328;2023-05-10T21:03:06;10.15;;;2.13;;
70549;SDS011;58101;48.658;2.328;2023-05-10T21:05:31;13.20;;;2.10;;
70549;SDS011;58101;48.658;2.328;2023-05-10T21:07:57;9.00;;;1.80;;
70549;SDS011;58101;48.658;2.328;2023-05-10T21:10:23;12.32;;;2.00;;
70549;SDS011;58101;48.658;2.328;2023-05-10T21:12:52;12.50;;;1.90;;
70549;SDS011;58101;48.658;2.328;2023-05-10T21:17:47;10.50;;;1.85;;
70549;SDS011;58101;48.658;2.328;2023-05-10T21:20:13;11.10;;;1.85;;
70549;SDS011;58101;48.658;2.328;2023-05-10T21:22:38;8.00;;;1.98;;
70549;SDS011;58101;48.658;2.328;2023-05-10T21:25:04;10.45;;;1.75;;
70549;SDS011;58101;48.658;2.328;2023-05-10T21:27:30;9.98;;;2.10;;
70549;SDS011;58101;48.658;2.328;2023-05-10T21:29:56;11.43;;;2.50;;
70549;SDS011;58101;48.658;2.328;2023-05-10T21:32:21;9.05;;;1.90;;
70549;SDS011;58101;48.658;2.328;2023-05-10T21:34:47;9.90;;;2.30;;
70549;SDS011;58101;48.658;2.328;2023-05-10T21:37:13;6.68;;;2.55;;
70549;SDS011;58101;48.658;2.328;2023-05-10T21:39:42;7.25;;;1.92;;
70549;SDS011;58101;48.658;2.328;2023-05-10T21:42:08;9.93;;;2.03;;
70549;SDS011;58101;48.658;2.328;2023-05-10T21:44:34;8.30;;;1.90;;
70549;SDS011;58101;48.658;2.328;2023-05-10T21:47:00;12.10;;;2.13;;
70549;SDS011;58101;48.658;2.328;2023-05-10T21:49:25;6.55;;;1.73;;
70549;SDS011;58101;48.658;2.328;2023-05-10T21:51:51;10.98;;;1.95;;
70549;SDS011;58101;48.658;2.328;2023-05-10T21:54:17;12.23;;;2.05;;
70549;SDS011;58101;48.658;2.328;2023-05-10T21:56:43;8.23;;;1.80;;
70549;SDS011;58101;48.658;2.328;2023-05-10T21:59:08;10.75;;;2.20;;
70549;SDS011;58101;48.658;2.328;2023-05-10T22:01:34;11.27;;;1.90;;
70549;SDS011;58101;48.658;2.328;2023-05-10T22:04:03;9.98;;;2.40;;
70549;SDS011;58101;48.658;2.328;2023-05-10T22:06:28;11.75;;;2.53;;
70549;SDS011;58101;48.658;2.328;2023-05-10T22:08:54;10.07;;;2.20;;
70549;SDS011;58101;48.658;2.328;2023-05-10T22:11:20;9.10;;;2.25;;
70549;SDS011;58101;48.658;2.328;2023-05-10T22:13:45;11.68;;;2.30;;
70549;SDS011;58101;48.658;2.328;2023-05-10T22:16:14;8.80;;;2.25;;
70549;SDS011;58101;48.658;2.328;2023-05-10T22:18:39;9.57;;;2.25;;
70549;SDS011;58101;48.658;2.328;2023-05-10T22:21:05;9.82;;;2.40;;
70549;SDS011;58101;48.658;2.328;2023-05-10T22:23:33;13.30;;;2.83;;
70549;SDS011;58101;48.658;2.328;2023-05-10T22:26:02;11.10;;;2.30;;
70549;SDS011;58101;48.658;2.328;2023-05-10T22:28:28;10.27;;;2.80;;
70549;SDS011;58101;48.658;2.328;2023-05-10T22:30:54;9.55;;;2.10;;
70549;SDS011;58101;48.658;2.328;2023-05-10T22:33:20;12.35;;;2.63;;
70549;SDS011;58101;48.658;2.328;2023-05-10T22:35:45;14.68;;;3.10;;
70549;SDS011;58101;48.658;2.328;2023-05-10T22:38:11;10.32;;;2.15;;
70549;SDS011;58101;48.658;2.328;2023-05-10T22:40:37;11.82;;;1.92;;
70549;SDS011;58101;48.658;2.328;2023-05-10T22:43:03;8.30;;;2.00;;
70549;SDS011;58101;48.658;2.328;2023-05-10T22:45:29;11.82;;;1.88;;
70549;SDS011;58101;48.658;2.328;2023-05-10T22:47:55;12.85;;;1.98;;
70549;SDS011;58101;48.658;2.328;2023-05-10T22:50:20;10.68;;;2.17;;
70549;SDS011;58101;48.658;2.328;2023-05-10T22:52:46;9.63;;;1.90;;
70549;SDS011;58101;48.658;2.328;2023-05-10T22:55:12;7.57;;;2.08;;
70549;SDS011;58101;48.658;2.328;2023-05-10T22:57:37;8.90;;;2.00;;
70549;SDS011;58101;48.658;2.328;2023-05-10T23:00:03;8.52;;;1.80;;
70549;SDS011;58101;48.658;2.328;2023-05-10T23:02:30;10.73;;;2.20;;
70549;SDS011;58101;48.658;2.328;2023-05-10T23:04:56;25.13;;;5.07;;
70549;SDS011;58101;48.658;2.328;2023-05-10T23:07:21;22.20;;;5.30;;
70549;SDS011;58101;48.658;2.328;2023-05-10T23:09:48;9.95;;;2.20;;
70549;SDS011;58101;48.658;2.328;2023-05-10T23:12:13;9.93;;;1.90;;
70549;SDS011;58101;48.658;2.328;2023-05-10T23:14:39;8.90;;;1.70;;
70549;SDS011;58101;48.658;2.328;2023-05-10T23:17:06;10.60;;;2.17;;
70549;SDS011;58101;48.658;2.328;2023-05-10T23:19:31;9.93;;;2.03;;
70549;SDS011;58101;48.658;2.328;2023-05-10T23:21:57;10.70;;;2.00;;
70549;SDS011;58101;48.658;2.328;2023-05-10T23:24:26;10.20;;;1.90;;
70549;SDS011;58101;48.658;2.328;2023-05-10T23:26:51;9.85;;;2.10;;
70549;SDS011;58101;48.658;2.328;2023-05-10T23:29:17;10.93;;;2.20;;
70549;SDS011;58101;48.658;2.328;2023-05-10T23:31:43;9.43;;;1.85;;
70549;SDS011;58101;48.658;2.328;2023-05-10T23:34:10;12.05;;;1.98;;
70549;SDS011;58101;48.658;2.328;2023-05-10T23:36:36;8.95;;;1.90;;
70549;SDS011;58101;48.658;2.328;2023-05-10T23:39:03;12.10;;;2.92;;
70549;SDS011;58101;48.658;2.328;2023-05-10T23:41:29;12.70;;;3.30;;